68  °F
Temperature
30  °F
  Dewpoint
24  %
   Humidity
Temp | Dewpoint | Humidity
13  km/h
Wind Speed
8  mph
Wind Speed
7  kts
Wind Speed
210°
South South
West

Wind Speed
Clear
Conditions
Pressure 1021.72 (hPa) - 30.17 (in)
Visibility 10.0 (mi) - 16.1 (km)

Current Conditions
KDZJ
Location 6km (3.2mi)
Metar :KDZJ 242055Z AUTO 21007KT 10SM CLR 20/M01 A3017 RMK AO2 T01951009
Sun 24th March 15:55 pm

Airport
https://www.checkwx.com/
  Metar Aviation API Data Provided by https://www.checkwx.com/ CSS/SVG/PHP scripts by weather34.com © 2015-2019